sensor_id;sensor_type;location;lat;lon;timestamp;pressure;altitude;pressure_sealevel;temperature;humidity
5777;BME280;2914;42.668;23.346;2022-08-21T20:31:04;93888.34;;;24.23;91.47
5777;BME280;2914;42.668;23.346;2022-08-21T20:33:34;93892.97;;;24.25;90.84
5777;BME280;2914;42.668;23.346;2022-08-21T20:36:04;93895.71;;;24.28;90.88
5777;BME280;2914;42.668;23.346;2022-08-21T20:38:33;93891.98;;;24.31;91.17
5777;BME280;2914;42.668;23.346;2022-08-21T20:41:03;93889.83;;;24.31;90.16
5777;BME280;2914;42.668;23.346;2022-08-21T20:46:14;93894.81;;;24.39;90.22
5777;BME280;2914;42.668;23.346;2022-08-21T20:48:44;93890.63;;;24.31;89.54
5777;BME280;2914;42.668;23.346;2022-08-21T20:51:15;93894.16;;;24.32;90.09
5777;BME280;2914;42.668;23.346;2022-08-21T20:53:47;93891.28;;;24.21;90.78
5777;BME280;2914;42.668;23.346;2022-08-21T20:58:56;93889.17;;;24.24;91.72
5777;BME280;2914;42.668;23.346;2022-08-21T21:01:25;93894.83;;;24.25;90.73
5777;BME280;2914;42.668;23.346;2022-08-21T21:04:00;93894.38;;;24.13;92.07
5777;BME280;2914;42.668;23.346;2022-08-21T21:06:29;93894.86;;;23.96;92.15
5777;BME280;2914;42.668;23.346;2022-08-21T21:11:43;93885.72;;;23.82;93.69
5777;BME280;2914;42.668;23.346;2022-08-21T21:14:15;93897.38;;;23.74;94.20
5777;BME280;2914;42.668;23.346;2022-08-21T21:16:48;93900.40;;;23.63;95.05
5777;BME280;2914;42.668;23.346;2022-08-21T21:19:22;93901.02;;;23.53;95.99
5777;BME280;2914;42.668;23.346;2022-08-21T21:24:34;93898.27;;;23.50;96.54
5777;BME280;2914;42.668;23.346;2022-08-21T21:27:06;93900.70;;;23.49;96.45
5777;BME280;2914;42.668;23.346;2022-08-21T21:32:18;93904.01;;;23.54;97.00
5777;BME280;2914;42.668;23.346;2022-08-21T21:34:48;93908.36;;;23.43;96.24
5777;BME280;2914;42.668;23.346;2022-08-21T21:37:20;93903.64;;;23.36;95.90
5777;BME280;2914;42.668;23.346;2022-08-21T21:39:53;93904.16;;;23.35;95.70
5777;BME280;2914;42.668;23.346;2022-08-21T21:42:26;93900.52;;;23.15;96.28
5777;BME280;2914;42.668;23.346;2022-08-21T21:47:53;93893.30;;;23.30;94.36
5777;BME280;2914;42.668;23.346;2022-08-21T21:50:32;93901.50;;;23.24;93.24
5777;BME280;2914;42.668;23.346;2022-08-21T21:53:09;93910.74;;;23.16;93.60
5777;BME280;2914;42.668;23.346;2022-08-21T21:55:48;93909.34;;;23.01;94.14
5777;BME280;2914;42.668;23.346;2022-08-21T22:01:13;93900.80;;;23.04;94.67
5777;BME280;2914;42.668;23.346;2022-08-21T22:03:47;93895.36;;;23.02;94.72
5777;BME280;2914;42.668;23.346;2022-08-21T22:06:20;93895.53;;;22.98;94.70
5777;BME280;2914;42.668;23.346;2022-08-21T22:08:51;93891.80;;;22.99;94.31
5777;BME280;2914;42.668;23.346;2022-08-21T22:11:24;93901.92;;;22.82;94.69
5777;BME280;2914;42.668;23.346;2022-08-21T22:13:57;93904.18;;;22.76;95.03
5777;BME280;2914;42.668;23.346;2022-08-21T22:16:26;93906.42;;;22.79;94.62
5777;BME280;2914;42.668;23.346;2022-08-21T22:18:57;93902.16;;;22.81;94.55
5777;BME280;2914;42.668;23.346;2022-08-21T22:21:30;93900.91;;;22.62;94.47
5777;BME280;2914;42.668;23.346;2022-08-21T22:24:05;93895.23;;;22.61;94.83
5777;BME280;2914;42.668;23.346;2022-08-21T22:26:37;93896.98;;;22.56;95.27
5777;BME280;2914;42.668;23.346;2022-08-21T22:29:12;93897.56;;;22.46;96.19
5777;BME280;2914;42.668;23.346;2022-08-21T22:31:41;93898.73;;;22.50;96.34
5777;BME280;2914;42.668;23.346;2022-08-21T22:34:14;93898.99;;;22.60;95.80
5777;BME280;2914;42.668;23.346;2022-08-21T22:36:45;93890.51;;;22.42;96.06
5777;BME280;2914;42.668;23.346;2022-08-21T22:39:17;93891.48;;;22.39;96.78
5777;BME280;2914;42.668;23.346;2022-08-21T22:41:47;93885.34;;;22.41;97.04
5777;BME280;2914;42.668;23.346;2022-08-21T22:44:21;93883.80;;;22.33;96.75
5777;BME280;2914;42.668;23.346;2022-08-21T22:46:53;93885.00;;;22.37;96.58
5777;BME280;2914;42.668;23.346;2022-08-21T22:49:30;93882.38;;;22.40;96.62
5777;BME280;2914;42.668;23.346;2022-08-21T22:52:09;93879.70;;;22.40;96.55
5777;BME280;2914;42.668;23.346;2022-08-21T22:54:41;93868.84;;;22.46;96.53
5777;BME280;2914;42.668;23.346;2022-08-21T22:57:13;93865.34;;;22.58;95.95
5777;BME280;2914;42.668;23.346;2022-08-21T22:59:51;93864.15;;;22.65;95.34
5777;BME280;2914;42.668;23.346;2022-08-21T23:02:28;93873.20;;;22.74;94.71
5777;BME280;2914;42.668;23.346;2022-08-21T23:05:01;93879.30;;;22.81;93.88
5777;BME280;2914;42.668;23.346;2022-08-21T23:07:37;93877.01;;;22.87;94.11
5777;BME280;2914;42.668;23.346;2022-08-21T23:10:17;93880.69;;;22.95;93.30
5777;BME280;2914;42.668;23.346;2022-08-21T23:12:47;93883.67;;;22.84;93.28
5777;BME280;2914;42.668;23.346;2022-08-21T23:15:17;93881.81;;;22.73;93.37
5777;BME280;2914;42.668;23.346;2022-08-21T23:17:52;93880.34;;;22.68;93.93
5777;BME280;2914;42.668;23.346;2022-08-21T23:20:24;93883.31;;;22.57;94.79
5777;BME280;2914;42.668;23.346;2022-08-21T23:23:02;93892.59;;;22.40;95.66
5777;BME280;2914;42.668;23.346;2022-08-21T23:28:37;93899.05;;;22.30;96.38
5777;BME280;2914;42.668;23.346;2022-08-21T23:31:11;93892.50;;;22.26;96.75
5777;BME280;2914;42.668;23.346;2022-08-21T23:34:00;93901.31;;;22.02;97.07
5777;BME280;2914;42.668;23.346;2022-08-21T23:36:42;93898.97;;;22.06;97.52
5777;BME280;2914;42.668;23.346;2022-08-21T23:39:46;93897.59;;;22.15;97.12
5777;BME280;2914;42.668;23.346;2022-08-21T23:42:23;93893.87;;;22.16;96.68
5777;BME280;2914;42.668;23.346;2022-08-21T23:44:55;93892.99;;;22.13;96.74
5777;BME280;2914;42.668;23.346;2022-08-21T23:47:32;93894.10;;;22.15;96.72
5777;BME280;2914;42.668;23.346;2022-08-21T23:50:04;93896.61;;;21.98;97.14
5777;BME280;2914;42.668;23.346;2022-08-21T23:52:37;93894.06;;;22.03;97.41
5777;BME280;2914;42.668;23.346;2022-08-21T23:55:21;93892.02;;;22.08;96.86
5777;BME280;2914;42.668;23.346;2022-08-21T23:57:55;93900.08;;;22.08;97.03
